sensor_id;sensor_type;location;lat;lon;timestamp;pressure;altitude;pressure_sealevel;temperature;humidity
69980;BME280;57318;56.232;43.944;2023-03-04T00:01:41;97510.28;;;-2.18;83.50
69980;BME280;57318;56.232;43.944;2023-03-04T00:04:06;97518.84;;;-2.16;83.84
69980;BME280;57318;56.232;43.944;2023-03-04T00:06:32;97513.81;;;-2.19;83.67
69980;BME280;57318;56.232;43.944;2023-03-04T00:08:58;97510.28;;;-2.18;83.90
69980;BME280;57318;56.232;43.944;2023-03-04T00:11:23;97523.38;;;-2.20;83.96
69980;BME280;57318;56.232;43.944;2023-03-04T00:13:49;97512.13;;;-2.20;84.00
69980;BME280;57318;56.232;43.944;2023-03-04T00:16:15;97508.59;;;-2.19;83.83
69980;BME280;57318;56.232;43.944;2023-03-04T00:18:40;97503.50;;;-2.21;83.91
69980;BME280;57318;56.232;43.944;2023-03-04T00:21:06;97507.00;;;-2.22;83.89
69980;BME280;57318;56.232;43.944;2023-03-04T00:23:31;97508.88;;;-2.24;84.07
69980;BME280;57318;56.232;43.944;2023-03-04T00:25:57;97507.31;;;-2.26;84.04
69980;BME280;57318;56.232;43.944;2023-03-04T00:28:23;97510.75;;;-2.26;83.84
69980;BME280;57318;56.232;43.944;2023-03-04T00:30:48;97497.72;;;-2.26;84.12
69980;BME280;57318;56.232;43.944;2023-03-04T00:33:14;97507.41;;;-2.28;84.03
69980;BME280;57318;56.232;43.944;2023-03-04T00:35:40;97498.00;;;-2.30;84.34
69980;BME280;57318;56.232;43.944;2023-03-04T00:38:06;97509.41;;;-2.33;84.67
69980;BME280;57318;56.232;43.944;2023-03-04T00:40:32;97517.03;;;-2.30;84.57
69980;BME280;57318;56.232;43.944;2023-03-04T00:42:58;97516.22;;;-2.30;84.58
69980;BME280;57318;56.232;43.944;2023-03-04T00:45:23;97503.22;;;-2.30;84.48
69980;BME280;57318;56.232;43.944;2023-03-04T00:47:49;97505.81;;;-2.30;84.31
69980;BME280;57318;56.232;43.944;2023-03-04T00:50:15;97491.88;;;-2.29;84.47
69980;BME280;57318;56.232;43.944;2023-03-04T00:52:40;97492.72;;;-2.29;84.36
69980;BME280;57318;56.232;43.944;2023-03-04T00:55:07;97494.41;;;-2.28;84.31
69980;BME280;57318;56.232;43.944;2023-03-04T00:57:33;97489.19;;;-2.28;84.30
69980;BME280;57318;56.232;43.944;2023-03-04T00:59:59;97485.81;;;-2.30;84.26
69980;BME280;57318;56.232;43.944;2023-03-04T01:02:24;97491.03;;;-2.30;84.13
69980;BME280;57318;56.232;43.944;2023-03-04T01:04:50;97488.16;;;-2.25;84.15
69980;BME280;57318;56.232;43.944;2023-03-04T01:07:16;97484.00;;;-2.28;84.10
69980;BME280;57318;56.232;43.944;2023-03-04T01:09:42;97483.03;;;-2.27;83.75
69980;BME280;57318;56.232;43.944;2023-03-04T01:12:07;97478.78;;;-2.28;83.98
69980;BME280;57318;56.232;43.944;2023-03-04T01:14:33;97479.69;;;-2.29;83.94
69980;BME280;57318;56.232;43.944;2023-03-04T01:16:58;97472.06;;;-2.32;83.83
69980;BME280;57318;56.232;43.944;2023-03-04T01:19:24;97481.84;;;-2.36;83.87
69980;BME280;57318;56.232;43.944;2023-03-04T01:21:49;97477.63;;;-2.38;83.78
69980;BME280;57318;56.232;43.944;2023-03-04T01:24:15;97473.63;;;-2.44;83.97
69980;BME280;57318;56.232;43.944;2023-03-04T01:26:41;97469.47;;;-2.46;84.20
69980;BME280;57318;56.232;43.944;2023-03-04T01:29:06;97470.66;;;-2.52;83.97
69980;BME280;57318;56.232;43.944;2023-03-04T01:31:32;97468.31;;;-2.57;84.29
69980;BME280;57318;56.232;43.944;2023-03-04T01:33:58;97455.59;;;-2.61;84.45
69980;BME280;57318;56.232;43.944;2023-03-04T01:36:23;97463.72;;;-2.67;84.71
69980;BME280;57318;56.232;43.944;2023-03-04T01:38:49;97456.97;;;-2.70;84.70
69980;BME280;57318;56.232;43.944;2023-03-04T01:41:16;97451.09;;;-2.74;84.76
69980;BME280;57318;56.232;43.944;2023-03-04T01:43:43;97455.63;;;-2.77;84.81
69980;BME280;57318;56.232;43.944;2023-03-04T01:46:11;97462.88;;;-2.82;84.99
69980;BME280;57318;56.232;43.944;2023-03-04T01:48:39;97459.88;;;-2.91;85.44
69980;BME280;57318;56.232;43.944;2023-03-04T01:51:11;97457.28;;;-2.91;85.51
69980;BME280;57318;56.232;43.944;2023-03-04T01:53:38;97466.91;;;-2.93;85.59
69980;BME280;57318;56.232;43.944;2023-03-04T01:56:36;97465.25;;;-2.94;86.04
69980;BME280;57318;56.232;43.944;2023-03-04T01:59:18;97451.16;;;-2.90;85.78
69980;BME280;57318;56.232;43.944;2023-03-04T02:01:47;97460.88;;;-2.93;86.27
69980;BME280;57318;56.232;43.944;2023-03-04T02:04:15;97457.28;;;-2.91;86.34
69980;BME280;57318;56.232;43.944;2023-03-04T02:06:42;97460.53;;;-2.87;86.38
69980;BME280;57318;56.232;43.944;2023-03-04T02:09:08;97453.22;;;-2.80;86.20
69980;BME280;57318;56.232;43.944;2023-03-04T02:11:35;97451.56;;;-2.81;86.08
69980;BME280;57318;56.232;43.944;2023-03-04T02:14:01;97455.63;;;-2.77;85.76
69980;BME280;57318;56.232;43.944;2023-03-04T02:16:27;97448.59;;;-2.75;85.90
69980;BME280;57318;56.232;43.944;2023-03-04T02:18:53;97448.59;;;-2.75;85.83
69980;BME280;57318;56.232;43.944;2023-03-04T02:21:28;97439.88;;;-2.74;85.62
69980;BME280;57318;56.232;43.944;2023-03-04T02:26:36;97444.88;;;-2.71;85.48
69980;BME280;57318;56.232;43.944;2023-03-04T02:29:02;97433.56;;;-2.70;85.34
69980;BME280;57318;56.232;43.944;2023-03-04T02:34:03;97436.81;;;-2.66;85.27
69980;BME280;57318;56.232;43.944;2023-03-04T02:36:31;97429.94;;;-2.67;85.45
69980;BME280;57318;56.232;43.944;2023-03-04T02:39:06;97436.91;;;-2.68;85.55
69980;BME280;57318;56.232;43.944;2023-03-04T02:41:35;97428.19;;;-2.67;85.53
69980;BME280;57318;56.232;43.944;2023-03-04T02:44:00;97429.84;;;-2.66;85.38
69980;BME280;57318;56.232;43.944;2023-03-04T02:46:26;97433.13;;;-2.62;85.49
69980;BME280;57318;56.232;43.944;2023-03-04T02:48:52;97431.16;;;-2.59;85.17
69980;BME280;57318;56.232;43.944;2023-03-04T02:51:18;97419.09;;;-2.60;85.15
69980;BME280;57318;56.232;43.944;2023-03-04T02:53:43;97424.19;;;-2.58;85.23
69980;BME280;57318;56.232;43.944;2023-03-04T02:56:09;97417.25;;;-2.58;84.95
69980;BME280;57318;56.232;43.944;2023-03-04T02:58:35;97422.19;;;-2.53;85.16
69980;BME280;57318;56.232;43.944;2023-03-04T03:01:04;97418.72;;;-2.54;85.17
69980;BME280;57318;56.232;43.944;2023-03-04T03:03:30;97414.19;;;-2.50;84.69
69980;BME280;57318;56.232;43.944;2023-03-04T03:05:55;97415.75;;;-2.47;84.81
69980;BME280;57318;56.232;43.944;2023-03-04T03:08:21;97402.75;;;-2.47;84.52
69980;BME280;57318;56.232;43.944;2023-03-04T03:10:47;97410.47;;;-2.46;84.71
69980;BME280;57318;56.232;43.944;2023-03-04T03:13:12;97406.19;;;-2.47;84.45
69980;BME280;57318;56.232;43.944;2023-03-04T03:15:38;97401.75;;;-2.45;84.37
69980;BME280;57318;56.232;43.944;2023-03-04T03:18:08;97396.66;;;-2.46;84.37
69980;BME280;57318;56.232;43.944;2023-03-04T03:20:34;97402.50;;;-2.43;84.42
69980;BME280;57318;56.232;43.944;2023-03-04T03:22:59;97395.41;;;-2.41;84.38
69980;BME280;57318;56.232;43.944;2023-03-04T03:25:25;97393.75;;;-2.42;84.47
69980;BME280;57318;56.232;43.944;2023-03-04T03:27:50;97390.22;;;-2.41;84.24
69980;BME280;57318;56.232;43.944;2023-03-04T03:30:16;97389.22;;;-2.38;84.27
69980;BME280;57318;56.232;43.944;2023-03-04T03:32:42;97384.75;;;-2.36;84.09
69980;BME280;57318;56.232;43.944;2023-03-04T03:35:08;97387.25;;;-2.34;84.19
69980;BME280;57318;56.232;43.944;2023-03-04T03:37:33;97382.81;;;-2.32;83.95
69980;BME280;57318;56.232;43.944;2023-03-04T03:39:59;97381.78;;;-2.30;84.05
69980;BME280;57318;56.232;43.944;2023-03-04T03:42:25;97379.84;;;-2.26;83.65
69980;BME280;57318;56.232;43.944;2023-03-04T03:44:50;97376.19;;;-2.24;83.43
69980;BME280;57318;56.232;43.944;2023-03-04T03:47:16;97371.94;;;-2.25;83.25
69980;BME280;57318;56.232;43.944;2023-03-04T03:49:41;97374.13;;;-2.19;83.27
69980;BME280;57318;56.232;43.944;2023-03-04T03:52:07;97370.63;;;-2.18;83.32
69980;BME280;57318;56.232;43.944;2023-03-04T03:54:33;97373.31;;;-2.19;82.98
69980;BME280;57318;56.232;43.944;2023-03-04T03:56:58;97368.75;;;-2.15;82.74
69980;BME280;57318;56.232;43.944;2023-03-04T03:59:24;97366.06;;;-2.14;82.80
69980;BME280;57318;56.232;43.944;2023-03-04T04:01:50;97370.25;;;-2.11;82.71
69980;BME280;57318;56.232;43.944;2023-03-04T04:04:15;97364.41;;;-2.15;82.46
69980;BME280;57318;56.232;43.944;2023-03-04T04:06:41;97361.88;;;-2.16;82.32
69980;BME280;57318;56.232;43.944;2023-03-04T04:09:06;97362.72;;;-2.16;82.35
69980;BME280;57318;56.232;43.944;2023-03-04T04:11:32;97368.75;;;-2.15;82.59
69980;BME280;57318;56.232;43.944;2023-03-04T04:13:58;97358.44;;;-2.17;82.41
69980;BME280;57318;56.232;43.944;2023-03-04T04:16:23;97364.41;;;-2.15;82.48
69980;BME280;57318;56.232;43.944;2023-03-04T04:18:49;97362.63;;;-2.14;82.32
69980;BME280;57318;56.232;43.944;2023-03-04T04:21:15;97363.44;;;-2.14;82.16
69980;BME280;57318;56.232;43.944;2023-03-04T04:23:40;97362.53;;;-2.13;82.01
69980;BME280;57318;56.232;43.944;2023-03-04T04:26:06;97363.25;;;-2.11;82.12
69980;BME280;57318;56.232;43.944;2023-03-04T04:28:31;97361.50;;;-2.10;81.96
69980;BME280;57318;56.232;43.944;2023-03-04T04:30:57;97353.69;;;-2.10;81.88
69980;BME280;57318;56.232;43.944;2023-03-04T04:33:23;97355.25;;;-2.08;81.78
69980;BME280;57318;56.232;43.944;2023-03-04T04:35:48;97356.66;;;-2.02;81.82
69980;BME280;57318;56.232;43.944;2023-03-04T04:38:14;97357.56;;;-2.03;81.42
69980;BME280;57318;56.232;43.944;2023-03-04T04:40:40;97360.84;;;-2.00;81.62
69980;BME280;57318;56.232;43.944;2023-03-04T04:43:07;97356.91;;;-1.92;81.30
69980;BME280;57318;56.232;43.944;2023-03-04T04:45:33;97365.25;;;-1.87;81.22
69980;BME280;57318;56.232;43.944;2023-03-04T04:47:59;97360.44;;;-1.79;81.17
69980;BME280;57318;56.232;43.944;2023-03-04T04:50:25;97355.13;;;-1.77;80.44
69980;BME280;57318;56.232;43.944;2023-03-04T04:52:51;97360.44;;;-1.79;80.06
69980;BME280;57318;56.232;43.944;2023-03-04T04:55:17;97360.34;;;-1.77;80.14
69980;BME280;57318;56.232;43.944;2023-03-04T04:57:42;97361.25;;;-1.78;80.02
69980;BME280;57318;56.232;43.944;2023-03-04T05:00:09;97365.25;;;-1.73;79.95
69980;BME280;57318;56.232;43.944;2023-03-04T05:02:35;97356.28;;;-1.69;79.93
69980;BME280;57318;56.232;43.944;2023-03-04T05:05:04;97362.78;;;-1.61;79.64
69980;BME280;57318;56.232;43.944;2023-03-04T05:07:30;97355.06;;;-1.63;79.41
69980;BME280;57318;56.232;43.944;2023-03-04T05:09:56;97361.63;;;-1.57;79.30
69980;BME280;57318;56.232;43.944;2023-03-04T05:12:22;97358.84;;;-1.54;79.13
69980;BME280;57318;56.232;43.944;2023-03-04T05:14:47;97351.38;;;-1.46;78.91
69980;BME280;57318;56.232;43.944;2023-03-04T05:17:13;97354.53;;;-1.41;78.72
69980;BME280;57318;56.232;43.944;2023-03-04T05:19:38;97348.81;;;-1.33;78.46
69980;BME280;57318;56.232;43.944;2023-03-04T05:22:04;97354.34;;;-1.25;77.95
69980;BME280;57318;56.232;43.944;2023-03-04T05:24:30;97356.97;;;-1.12;77.65
69980;BME280;57318;56.232;43.944;2023-03-04T05:26:55;97346.06;;;-1.04;77.26
69980;BME280;57318;56.232;43.944;2023-03-04T05:29:21;97341.16;;;-0.96;77.15
69980;BME280;57318;56.232;43.944;2023-03-04T05:31:46;97337.53;;;-0.81;76.50
69980;BME280;57318;56.232;43.944;2023-03-04T05:34:12;97346.41;;;-0.70;76.00
69980;BME280;57318;56.232;43.944;2023-03-04T05:36:38;97341.06;;;-0.56;75.45
69980;BME280;57318;56.232;43.944;2023-03-04T05:39:03;97352.13;;;-0.40;74.51
69980;BME280;57318;56.232;43.944;2023-03-04T05:41:29;97343.94;;;-0.22;74.02
69980;BME280;57318;56.232;43.944;2023-03-04T05:43:54;97346.44;;;-0.08;73.49
69980;BME280;57318;56.232;43.944;2023-03-04T05:46:20;97340.88;;;0.10;72.83
69980;BME280;57318;56.232;43.944;2023-03-04T05:48:50;97352.84;;;0.25;71.54
69980;BME280;57318;56.232;43.944;2023-03-04T05:51:17;97343.94;;;0.52;71.24
69980;BME280;57318;56.232;43.944;2023-03-04T05:53:43;97337.13;;;0.74;70.24
69980;BME280;57318;56.232;43.944;2023-03-04T05:56:17;97339.94;;;0.95;69.61
69980;BME280;57318;56.232;43.944;2023-03-04T05:58:43;97343.63;;;1.03;68.47
69980;BME280;57318;56.232;43.944;2023-03-04T06:01:09;97330.47;;;1.16;67.81
69980;BME280;57318;56.232;43.944;2023-03-04T06:03:35;97333.09;;;1.16;67.43
69980;BME280;57318;56.232;43.944;2023-03-04T06:06:01;97334.66;;;1.30;67.47
69980;BME280;57318;56.232;43.944;2023-03-04T06:08:27;97330.63;;;1.37;67.06
69980;BME280;57318;56.232;43.944;2023-03-04T06:10:54;97331.34;;;1.51;66.49
69980;BME280;57318;56.232;43.944;2023-03-04T06:13:21;97337.19;;;1.66;66.08
69980;BME280;57318;56.232;43.944;2023-03-04T06:15:53;97339.00;;;1.76;65.93
69980;BME280;57318;56.232;43.944;2023-03-04T06:18:18;97337.41;;;1.85;65.25
69980;BME280;57318;56.232;43.944;2023-03-04T06:20:44;97340.03;;;1.85;65.07
69980;BME280;57318;56.232;43.944;2023-03-04T06:23:10;97343.50;;;1.86;64.47
69980;BME280;57318;56.232;43.944;2023-03-04T06:25:35;97335.88;;;1.94;64.65
69980;BME280;57318;56.232;43.944;2023-03-04T06:28:01;97338.47;;;2.05;64.25
69980;BME280;57318;56.232;43.944;2023-03-04T06:30:27;97335.63;;;2.08;63.92
69980;BME280;57318;56.232;43.944;2023-03-04T06:32:53;97343.50;;;1.97;63.11
69980;BME280;57318;56.232;43.944;2023-03-04T06:35:21;97339.44;;;1.82;63.72
69980;BME280;57318;56.232;43.944;2023-03-04T06:37:46;97334.94;;;1.72;64.14
69980;BME280;57318;56.232;43.944;2023-03-04T06:40:12;97334.34;;;1.80;64.47
69980;BME280;57318;56.232;43.944;2023-03-04T06:42:38;97340.88;;;1.63;63.93
69980;BME280;57318;56.232;43.944;2023-03-04T06:45:05;97331.47;;;1.38;64.49
69980;BME280;57318;56.232;43.944;2023-03-04T06:47:31;97337.50;;;1.16;65.20
69980;BME280;57318;56.232;43.944;2023-03-04T06:49:57;97334.50;;;0.98;65.75
69980;BME280;57318;56.232;43.944;2023-03-04T06:52:23;97339.84;;;1.07;66.09
69980;BME280;57318;56.232;43.944;2023-03-04T06:54:49;97327.84;;;1.16;66.05
69980;BME280;57318;56.232;43.944;2023-03-04T06:57:14;97331.69;;;1.23;65.80
69980;BME280;57318;56.232;43.944;2023-03-04T06:59:40;97324.19;;;1.30;65.79
69980;BME280;57318;56.232;43.944;2023-03-04T07:02:06;97332.16;;;1.40;64.98
69980;BME280;57318;56.232;43.944;2023-03-04T07:04:34;97322.56;;;1.52;64.88
69980;BME280;57318;56.232;43.944;2023-03-04T07:07:00;97319.59;;;1.56;64.42
69980;BME280;57318;56.232;43.944;2023-03-04T07:09:25;97319.22;;;1.72;64.04
69980;BME280;57318;56.232;43.944;2023-03-04T07:11:51;97314.81;;;1.95;63.47
69980;BME280;57318;56.232;43.944;2023-03-04T07:14:17;97309.50;;;2.18;62.67
69980;BME280;57318;56.232;43.944;2023-03-04T07:16:42;97303.56;;;2.60;61.80
69980;BME280;57318;56.232;43.944;2023-03-04T07:19:08;97299.47;;;3.09;59.67
69980;BME280;57318;56.232;43.944;2023-03-04T07:21:33;97300.78;;;3.76;58.04
69980;BME280;57318;56.232;43.944;2023-03-04T07:23:59;97295.38;;;4.28;56.28
69980;BME280;57318;56.232;43.944;2023-03-04T07:26:25;97295.09;;;6.22;53.33
69980;BME280;57318;56.232;43.944;2023-03-04T07:28:51;97293.91;;;7.93;48.79
69980;BME280;57318;56.232;43.944;2023-03-04T07:31:27;97298.75;;;10.43;42.59
69980;BME280;57318;56.232;43.944;2023-03-04T07:33:59;97302.06;;;10.77;38.92
69980;BME280;57318;56.232;43.944;2023-03-04T07:36:26;97304.22;;;12.02;38.08
69980;BME280;57318;56.232;43.944;2023-03-04T07:38:52;97292.22;;;12.43;36.23
69980;BME280;57318;56.232;43.944;2023-03-04T07:41:23;97291.91;;;12.31;36.31
69980;BME280;57318;56.232;43.944;2023-03-04T07:43:49;97287.50;;;12.60;35.52
69980;BME280;57318;56.232;43.944;2023-03-04T07:46:15;97297.28;;;12.96;34.66
69980;BME280;57318;56.232;43.944;2023-03-04T07:48:41;97285.28;;;13.28;33.51
69980;BME280;57318;56.232;43.944;2023-03-04T07:53:36;97287.31;;;14.86;31.77
69980;BME280;57318;56.232;43.944;2023-03-04T07:56:03;97280.69;;;16.54;29.20
69980;BME280;57318;56.232;43.944;2023-03-04T07:58:29;97282.47;;;17.75;27.28
69980;BME280;57318;56.232;43.944;2023-03-04T08:00:55;97280.19;;;18.83;25.64
69980;BME280;57318;56.232;43.944;2023-03-04T08:03:20;97269.72;;;19.35;24.37
69980;BME280;57318;56.232;43.944;2023-03-04T08:05:46;97269.94;;;19.69;23.51
69980;BME280;57318;56.232;43.944;2023-03-04T08:08:12;97273.56;;;20.10;23.35
69980;BME280;57318;56.232;43.944;2023-03-04T08:10:37;97272.00;;;20.67;22.00
69980;BME280;57318;56.232;43.944;2023-03-04T08:13:07;97264.31;;;21.04;20.69
69980;BME280;57318;56.232;43.944;2023-03-04T08:15:32;97258.25;;;21.14;21.94
69980;BME280;57318;56.232;43.944;2023-03-04T08:18:00;97261.56;;;21.50;20.71
69980;BME280;57318;56.232;43.944;2023-03-04T08:20:26;97258.06;;;21.67;20.61
69980;BME280;57318;56.232;43.944;2023-03-04T08:22:52;97250.03;;;19.70;21.15
69980;BME280;57318;56.232;43.944;2023-03-04T08:25:17;97252.78;;;17.70;23.51
69980;BME280;57318;56.232;43.944;2023-03-04T08:27:43;97256.03;;;15.80;26.15
69980;BME280;57318;56.232;43.944;2023-03-04T08:30:10;97255.41;;;14.16;27.59
69980;BME280;57318;56.232;43.944;2023-03-04T08:32:35;97241.22;;;12.24;30.89
69980;BME280;57318;56.232;43.944;2023-03-04T08:35:01;97252.56;;;11.97;31.75
69980;BME280;57318;56.232;43.944;2023-03-04T08:37:29;97238.88;;;11.70;32.46
69980;BME280;57318;56.232;43.944;2023-03-04T08:39:54;97246.91;;;10.79;33.56
69980;BME280;57318;56.232;43.944;2023-03-04T08:42:20;97245.53;;;10.37;34.49
69980;BME280;57318;56.232;43.944;2023-03-04T08:44:45;97235.34;;;9.86;35.29
69980;BME280;57318;56.232;43.944;2023-03-04T08:47:11;97232.19;;;9.34;36.25
69980;BME280;57318;56.232;43.944;2023-03-04T08:49:37;97242.31;;;9.14;36.81
69980;BME280;57318;56.232;43.944;2023-03-04T08:52:03;97222.19;;;8.80;37.35
69980;BME280;57318;56.232;43.944;2023-03-04T08:54:29;97231.22;;;10.46;35.53
69980;BME280;57318;56.232;43.944;2023-03-04T08:56:55;97227.59;;;11.53;32.66
69980;BME280;57318;56.232;43.944;2023-03-04T08:59:20;97234.38;;;11.85;32.08
69980;BME280;57318;56.232;43.944;2023-03-04T09:01:46;97219.31;;;12.66;31.38
69980;BME280;57318;56.232;43.944;2023-03-04T09:04:11;97222.03;;;13.22;30.26
69980;BME280;57318;56.232;43.944;2023-03-04T09:06:37;97225.00;;;13.34;29.46
69980;BME280;57318;56.232;43.944;2023-03-04T09:09:03;97225.69;;;13.78;29.14
69980;BME280;57318;56.232;43.944;2023-03-04T09:11:29;97224.94;;;13.27;29.18
69980;BME280;57318;56.232;43.944;2023-03-04T09:13:55;97209.09;;;12.48;30.33
69980;BME280;57318;56.232;43.944;2023-03-04T09:16:21;97215.41;;;11.59;31.12
69980;BME280;57318;56.232;43.944;2023-03-04T09:18:47;97210.06;;;10.99;32.55
69980;BME280;57318;56.232;43.944;2023-03-04T09:21:13;97210.06;;;9.98;34.03
69980;BME280;57318;56.232;43.944;2023-03-04T09:23:38;97206.84;;;9.80;34.91
69980;BME280;57318;56.232;43.944;2023-03-04T09:26:24;97212.16;;;10.42;33.86
69980;BME280;57318;56.232;43.944;2023-03-04T09:28:55;97207.25;;;10.77;33.02
69980;BME280;57318;56.232;43.944;2023-03-04T09:31:21;97207.97;;;10.86;32.86
69980;BME280;57318;56.232;43.944;2023-03-04T09:33:47;97210.06;;;11.88;31.65
69980;BME280;57318;56.232;43.944;2023-03-04T09:36:14;97204.63;;;12.12;31.03
69980;BME280;57318;56.232;43.944;2023-03-04T09:38:41;97203.50;;;11.54;31.92
69980;BME280;57318;56.232;43.944;2023-03-04T09:41:11;97207.13;;;11.09;32.32
69980;BME280;57318;56.232;43.944;2023-03-04T09:43:40;97195.09;;;10.37;33.44
69980;BME280;57318;56.232;43.944;2023-03-04T09:46:13;97204.00;;;9.50;34.56
69980;BME280;57318;56.232;43.944;2023-03-04T09:48:47;97193.38;;;8.77;36.23
69980;BME280;57318;56.232;43.944;2023-03-04T09:54:04;97197.50;;;7.37;38.88
69980;BME280;57318;56.232;43.944;2023-03-04T09:56:26;97192.94;;;6.60;40.50
69980;BME280;57318;56.232;43.944;2023-03-04T10:04:00;97186.13;;;5.58;43.34
69980;BME280;57318;56.232;43.944;2023-03-04T10:06:30;97189.88;;;5.28;44.36
69980;BME280;57318;56.232;43.944;2023-03-04T10:09:00;97189.34;;;4.77;45.87
69980;BME280;57318;56.232;43.944;2023-03-04T10:11:38;97186.47;;;4.70;46.01
69980;BME280;57318;56.232;43.944;2023-03-04T10:16:48;97190.03;;;4.79;46.36
69980;BME280;57318;56.232;43.944;2023-03-04T10:21:47;97182.78;;;5.00;46.18
69980;BME280;57318;56.232;43.944;2023-03-04T10:24:16;97184.97;;;5.05;46.10
69980;BME280;57318;56.232;43.944;2023-03-04T10:26:48;97185.50;;;5.09;46.14
69980;BME280;57318;56.232;43.944;2023-03-04T10:29:18;97183.41;;;5.12;45.69
69980;BME280;57318;56.232;43.944;2023-03-04T10:31:45;97178.41;;;5.19;45.94
69980;BME280;57318;56.232;43.944;2023-03-04T10:34:12;97171.44;;;5.28;45.95
69980;BME280;57318;56.232;43.944;2023-03-04T10:39:40;97174.22;;;4.79;47.08
69980;BME280;57318;56.232;43.944;2023-03-04T10:42:23;97177.34;;;4.35;48.58
69980;BME280;57318;56.232;43.944;2023-03-04T10:44:57;97173.19;;;3.84;50.30
69980;BME280;57318;56.232;43.944;2023-03-04T10:47:24;97175.00;;;3.33;52.15
69980;BME280;57318;56.232;43.944;2023-03-04T10:49:56;97189.50;;;2.96;55.43
69980;BME280;57318;56.232;43.944;2023-03-04T10:54:56;97190.22;;;1.70;63.61
69980;BME280;57318;56.232;43.944;2023-03-04T10:57:38;97188.38;;;1.27;67.25
69980;BME280;57318;56.232;43.944;2023-03-04T11:02:43;97181.44;;;0.58;71.87
69980;BME280;57318;56.232;43.944;2023-03-04T11:12:55;97172.59;;;0.25;74.00
69980;BME280;57318;56.232;43.944;2023-03-04T11:15:26;97166.56;;;0.36;74.46
69980;BME280;57318;56.232;43.944;2023-03-04T11:18:01;97163.38;;;0.44;73.41
69980;BME280;57318;56.232;43.944;2023-03-04T11:20:35;97158.75;;;0.47;72.21
69980;BME280;57318;56.232;43.944;2023-03-04T11:23:05;97163.25;;;0.57;74.28
69980;BME280;57318;56.232;43.944;2023-03-04T11:25:41;97152.69;;;0.58;73.93
69980;BME280;57318;56.232;43.944;2023-03-04T11:28:28;97155.31;;;0.58;73.07
69980;BME280;57318;56.232;43.944;2023-03-04T11:30:59;97149.78;;;0.74;73.52
69980;BME280;57318;56.232;43.944;2023-03-04T11:33:38;97151.69;;;0.95;72.36
69980;BME280;57318;56.232;43.944;2023-03-04T11:36:24;97151.31;;;1.11;71.33
69980;BME280;57318;56.232;43.944;2023-03-04T11:38:53;97147.25;;;1.06;71.38
69980;BME280;57318;56.232;43.944;2023-03-04T11:41:24;97153.94;;;0.99;71.54
69980;BME280;57318;56.232;43.944;2023-03-04T11:43:54;97151.66;;;0.83;71.60
69980;BME280;57318;56.232;43.944;2023-03-04T12:05:47;97128.22;;;1.71;68.55
69980;BME280;57318;56.232;43.944;2023-03-04T12:08:36;97129.97;;;1.82;68.42
69980;BME280;57318;56.232;43.944;2023-03-04T12:16:24;97110.00;;;2.02;67.34
69980;BME280;57318;56.232;43.944;2023-03-04T12:19:15;97117.53;;;1.95;67.26
69980;BME280;57318;56.232;43.944;2023-03-04T12:24:39;97107.91;;;2.16;67.07
69980;BME280;57318;56.232;43.944;2023-03-04T12:29:58;97111.38;;;3.10;64.82
69980;BME280;57318;56.232;43.944;2023-03-04T12:42:06;97099.63;;;9.43;46.01
69980;BME280;57318;56.232;43.944;2023-03-04T12:44:21;97096.44;;;9.16;45.24
69980;BME280;57318;56.232;43.944;2023-03-04T12:52:13;97082.53;;;9.14;42.67
69980;BME280;57318;56.232;43.944;2023-03-04T12:54:50;97078.56;;;8.29;44.31
69980;BME280;57318;56.232;43.944;2023-03-04T12:57:19;97073.75;;;8.32;44.75
69980;BME280;57318;56.232;43.944;2023-03-04T12:59:57;97078.41;;;8.06;44.71
69980;BME280;57318;56.232;43.944;2023-03-04T13:02:33;97077.59;;;8.30;44.83
69980;BME280;57318;56.232;43.944;2023-03-04T13:05:18;97073.94;;;9.12;43.20
69980;BME280;57318;56.232;43.944;2023-03-04T13:10:23;97069.03;;;9.40;41.44
69980;BME280;57318;56.232;43.944;2023-03-04T13:12:53;97069.00;;;8.44;42.46
69980;BME280;57318;56.232;43.944;2023-03-04T13:18:55;97061.72;;;5.46;48.19
69980;BME280;57318;56.232;43.944;2023-03-04T13:21:21;97059.78;;;4.08;50.69
69980;BME280;57318;56.232;43.944;2023-03-04T13:23:48;97058.56;;;3.53;52.78
69980;BME280;57318;56.232;43.944;2023-03-04T13:26:29;97052.25;;;2.96;54.88
69980;BME280;57318;56.232;43.944;2023-03-04T13:32:08;97040.72;;;2.37;56.72
69980;BME280;57318;56.232;43.944;2023-03-04T13:34:52;97042.22;;;2.08;57.49
69980;BME280;57318;56.232;43.944;2023-03-04T13:37:33;97026.66;;;1.86;58.34
69980;BME280;57318;56.232;43.944;2023-03-04T13:42:48;97028.69;;;2.03;58.60
69980;BME280;57318;56.232;43.944;2023-03-04T13:45:35;97021.28;;;2.80;57.52
69980;BME280;57318;56.232;43.944;2023-03-04T13:48:41;97016.31;;;2.77;56.48
69980;BME280;57318;56.232;43.944;2023-03-04T13:59:14;97016.06;;;1.34;60.04
69980;BME280;57318;56.232;43.944;2023-03-04T14:04:20;97016.03;;;1.01;61.74
69980;BME280;57318;56.232;43.944;2023-03-04T14:06:48;97016.91;;;0.79;62.20
69980;BME280;57318;56.232;43.944;2023-03-04T14:09:19;97017.91;;;0.56;62.98
69980;BME280;57318;56.232;43.944;2023-03-04T14:11:46;97020.03;;;0.39;63.87
69980;BME280;57318;56.232;43.944;2023-03-04T14:14:13;97016.84;;;0.24;64.70
69980;BME280;57318;56.232;43.944;2023-03-04T14:16:46;97021.31;;;0.11;65.14
69980;BME280;57318;56.232;43.944;2023-03-04T14:19:25;97015.84;;;0.03;65.23
69980;BME280;57318;56.232;43.944;2023-03-04T14:21:52;97011.84;;;-0.02;65.74
69980;BME280;57318;56.232;43.944;2023-03-04T14:24:19;97010.41;;;-0.06;66.42
69980;BME280;57318;56.232;43.944;2023-03-04T14:26:46;97014.41;;;-0.13;66.53
69980;BME280;57318;56.232;43.944;2023-03-04T14:29:39;97009.41;;;-0.16;66.62
69980;BME280;57318;56.232;43.944;2023-03-04T14:32:05;97005.97;;;-0.16;67.06
69980;BME280;57318;56.232;43.944;2023-03-04T14:34:33;97008.72;;;-0.18;67.27
69980;BME280;57318;56.232;43.944;2023-03-04T14:37:21;97005.38;;;-0.20;67.35
69980;BME280;57318;56.232;43.944;2023-03-04T14:39:49;97006.31;;;-0.21;67.28
69980;BME280;57318;56.232;43.944;2023-03-04T14:42:20;97003.72;;;-0.21;67.31